Time;durP1;ratioP1;P1;durP2;ratioP2;P2;SDS_P1;SDS_P2;PMS_P1;PMS_P2;Temp;Humidity;BMP_temperature;BMP_pressure;BME280_temperature;BME280_humidity;BME280_pressure;Samples;Min_cycle;Max_cycle;Signal;HPM_P1;HPM_P2
2022/01/10 00:01:48;;;;;;;30.80;10.47;;;5.60;99.90;;;;;;5110376;27;20406;-72
2022/01/10 00:04:13;;;;;;;29.40;10.15;;;5.60;99.90;;;;;;5109206;27;20416;-72
2022/01/10 00:06:39;;;;;;;32.17;10.30;;;5.70;99.90;;;;;;5118331;27;20472;-71
2022/01/10 00:09:05;;;;;;;38.88;11.52;;;5.70;99.90;;;;;;5111300;27;20401;-71
2022/01/10 00:11:31;;;;;;;33.75;11.23;;;5.70;99.90;;;;;;5116657;27;20881;-70
2022/01/10 00:13:56;;;;;;;35.20;11.80;;;5.70;99.90;;;;;;5111109;27;20404;-70
2022/01/10 00:16:22;;;;;;;34.83;12.07;;;5.70;99.90;;;;;;5113416;27;20428;-69
2022/01/10 00:18:47;;;;;;;30.83;11.52;;;5.60;99.90;;;;;;5110889;27;20505;-70
2022/01/10 00:21:13;;;;;;;38.47;12.17;;;5.60;99.90;;;;;;5107298;28;20457;-68
2022/01/10 00:23:39;;;;;;;35.20;12.27;;;5.60;99.90;;;;;;5110293;27;20469;-72
2022/01/10 00:26:04;;;;;;;34.80;11.53;;;5.60;99.90;;;;;;5114418;27;20394;-71
2022/01/10 00:28:30;;;;;;;31.70;10.70;;;5.60;99.90;;;;;;5103899;28;20396;-70
2022/01/10 00:30:56;;;;;;;36.90;10.50;;;5.70;99.90;;;;;;5115158;27;20408;-71
2022/01/10 00:33:21;;;;;;;32.45;10.07;;;5.60;99.90;;;;;;5113957;27;20408;-70
2022/01/10 00:35:47;;;;;;;29.83;10.33;;;5.60;99.90;;;;;;5113424;27;20424;-71
2022/01/10 00:38:13;;;;;;;31.83;11.70;;;5.70;99.90;;;;;;5100822;27;20427;-72
2022/01/10 00:40:40;;;;;;;39.37;11.17;;;5.70;99.90;;;;;;5119153;27;20510;-72
2022/01/10 00:43:08;;;;;;;29.92;10.27;;;5.70;99.90;;;;;;5114883;27;20488;-72
2022/01/10 00:45:33;;;;;;;33.78;10.95;;;5.70;99.90;;;;;;5123238;27;20404;-72
2022/01/10 00:48:00;;;;;;;29.95;11.00;;;5.70;99.90;;;;;;5119080;27;20390;-71
2022/01/10 00:50:27;;;;;;;29.35;12.07;;;5.70;99.90;;;;;;5110799;27;20411;-72
2022/01/10 00:52:54;;;;;;;32.50;11.02;;;5.70;99.90;;;;;;5115855;27;20434;-70
2022/01/10 00:55:20;;;;;;;31.38;11.60;;;5.70;99.90;;;;;;5110902;27;20408;-71
2022/01/10 00:57:46;;;;;;;33.35;10.60;;;5.70;99.90;;;;;;5107912;28;20400;-71
2022/01/10 01:00:15;;;;;;;30.87;11.23;;;5.80;99.90;;;;;;5110281;27;20407;-72
2022/01/10 01:02:40;;;;;;;30.42;11.40;;;5.80;99.90;;;;;;5108770;27;20407;-70
2022/01/10 01:05:10;;;;;;;27.83;10.77;;;5.80;99.90;;;;;;5107818;27;20480;-70
2022/01/10 01:07:36;;;;;;;33.65;10.98;;;5.90;99.90;;;;;;5099650;28;20442;-72
2022/01/10 01:13:10;;;;;;;28.20;10.27;;;5.90;99.90;;;;;;5112422;28;20877;-70
2022/01/10 01:15:56;;;;;;;28.85;10.30;;;6.00;99.90;;;;;;5110503;27;20507;-71
2022/01/10 01:18:46;;;;;;;28.35;10.85;;;5.90;99.90;;;;;;5107883;28;20442;-71
2022/01/10 01:24:08;;;;;;;35.40;11.73;;;5.90;99.90;;;;;;5104921;28;20484;-70
2022/01/10 01:26:43;;;;;;;28.92;11.07;;;5.90;99.90;;;;;;5108674;28;20408;-72
2022/01/10 01:29:11;;;;;;;33.03;10.27;;;5.90;99.90;;;;;;5113621;28;20512;-70
2022/01/10 01:31:38;;;;;;;29.73;10.27;;;5.90;99.90;;;;;;5096159;28;20401;-71
2022/01/10 01:34:04;;;;;;;33.95;10.70;;;5.90;99.90;;;;;;5108531;28;20408;-71
2022/01/10 01:36:31;;;;;;;33.95;10.07;;;5.90;99.90;;;;;;5111977;28;20421;-70
2022/01/10 01:38:58;;;;;;;27.33;9.88;;;5.90;99.90;;;;;;5102442;28;20397;-71
2022/01/10 01:43:54;;;;;;;32.38;10.68;;;5.90;99.90;;;;;;5111752;28;20470;-72
2022/01/10 01:46:20;;;;;;;32.58;10.40;;;5.90;99.90;;;;;;5090180;28;20488;-74
2022/01/10 01:48:47;;;;;;;36.28;10.55;;;5.90;99.90;;;;;;5122044;27;20843;-71
2022/01/10 01:51:14;;;;;;;33.85;10.50;;;5.90;99.90;;;;;;5126805;27;20381;-71
2022/01/10 01:53:40;;;;;;;29.33;10.70;;;5.90;99.90;;;;;;5118944;27;20416;-71
2022/01/10 01:56:08;;;;;;;34.28;10.90;;;5.90;99.90;;;;;;5111876;27;20483;-70
2022/01/10 01:58:36;;;;;;;34.53;11.75;;;5.90;99.90;;;;;;5120918;27;20387;-70
2022/01/10 02:01:06;;;;;;;40.00;12.82;;;5.90;99.90;;;;;;5111099;27;20396;-69
2022/01/10 02:03:38;;;;;;;30.15;10.48;;;5.90;99.90;;;;;;5093951;27;20497;-70
2022/01/10 02:06:05;;;;;;;35.90;10.73;;;5.90;99.90;;;;;;5117525;27;20734;-70
2022/01/10 02:08:35;;;;;;;34.55;11.00;;;5.80;99.90;;;;;;5118365;27;20412;-70
2022/01/10 02:11:03;;;;;;;36.28;10.75;;;5.80;99.90;;;;;;5111040;27;20487;-70
2022/01/10 02:13:29;;;;;;;29.45;10.07;;;5.80;99.90;;;;;;5121410;27;20991;-71
2022/01/10 02:16:04;;;;;;;31.77;10.17;;;5.80;99.90;;;;;;5094033;28;20399;-70
2022/01/10 02:18:34;;;;;;;31.63;10.68;;;5.80;99.90;;;;;;5124964;27;20392;-70
2022/01/10 02:21:03;;;;;;;24.50;10.30;;;5.80;99.90;;;;;;5093783;28;20877;-70
2022/01/10 02:23:31;;;;;;;28.75;10.68;;;5.70;99.90;;;;;;5114058;27;20407;-71
2022/01/10 02:26:04;;;;;;;33.83;12.02;;;5.70;99.90;;;;;;5105719;27;20386;-71
2022/01/10 02:28:32;;;;;;;27.52;10.32;;;5.70;99.90;;;;;;5109136;27;20742;-71
2022/01/10 02:30:58;;;;;;;30.35;10.68;;;5.70;99.90;;;;;;5093201;28;20411;-70
2022/01/10 02:33:28;;;;;;;32.92;10.90;;;5.70;99.90;;;;;;5109188;27;20441;-70
2022/01/10 02:38:26;;;;;;;30.30;11.00;;;5.70;99.90;;;;;;5109030;27;20423;-70
2022/01/10 02:40:53;;;;;;;30.17;10.38;;;5.70;99.90;;;;;;5116505;27;20802;-70
2022/01/10 02:43:19;;;;;;;36.15;11.05;;;5.70;99.90;;;;;;5114648;27;20558;-71
2022/01/10 02:45:45;;;;;;;27.75;10.50;;;5.70;99.90;;;;;;5108293;27;20491;-72
2022/01/10 02:48:11;;;;;;;33.80;11.77;;;5.70;99.90;;;;;;5098692;28;20396;-72
2022/01/10 02:50:37;;;;;;;30.93;10.40;;;5.80;99.90;;;;;;5106133;27;20415;-71
2022/01/10 02:53:03;;;;;;;25.48;9.98;;;5.80;99.90;;;;;;5109499;27;20407;-71
2022/01/10 02:55:30;;;;;;;28.90;10.30;;;5.80;99.90;;;;;;5108934;27;20870;-70
2022/01/10 02:57:56;;;;;;;27.45;10.65;;;5.80;99.90;;;;;;5109253;28;20442;-71
2022/01/10 03:00:25;;;;;;;30.23;10.38;;;5.80;99.90;;;;;;5107953;28;20408;-71
2022/01/10 03:02:53;;;;;;;31.20;10.48;;;5.80;99.90;;;;;;5116029;27;20412;-71
2022/01/10 03:05:23;;;;;;;26.45;10.45;;;5.80;99.90;;;;;;5114078;27;20431;-71
2022/01/10 03:07:52;;;;;;;31.90;10.77;;;5.80;99.90;;;;;;5111758;27;20537;-72
2022/01/10 03:10:18;;;;;;;35.63;10.80;;;5.90;99.90;;;;;;5118934;27;20407;-72
2022/01/10 03:12:44;;;;;;;32.25;10.48;;;5.90;99.90;;;;;;5112543;27;20456;-72
2022/01/10 03:15:12;;;;;;;31.85;10.30;;;5.90;99.90;;;;;;5101912;27;20736;-71
2022/01/10 03:17:38;;;;;;;30.55;9.48;;;6.00;99.90;;;;;;5109907;27;20415;-70
2022/01/10 03:20:06;;;;;;;28.90;9.20;;;6.00;99.90;;;;;;5112192;27;20430;-71
2022/01/10 03:22:32;;;;;;;28.33;9.40;;;6.00;99.90;;;;;;5124612;27;20411;-71
2022/01/10 03:24:59;;;;;;;32.03;9.70;;;6.10;99.90;;;;;;5113473;27;20424;-70
2022/01/10 03:27:26;;;;;;;28.55;9.98;;;6.10;99.90;;;;;;5109490;27;20473;-71
2022/01/10 03:29:54;;;;;;;33.20;9.63;;;6.10;99.90;;;;;;5120401;27;20405;-71
2022/01/10 03:32:21;;;;;;;28.67;9.23;;;6.10;99.90;;;;;;5115434;27;20448;-71
2022/01/10 03:34:49;;;;;;;29.65;9.25;;;6.00;99.90;;;;;;5115738;27;20408;-72
2022/01/10 03:37:14;;;;;;;32.23;9.47;;;6.00;99.90;;;;;;5119110;27;20936;-71
2022/01/10 03:39:43;;;;;;;31.67;9.63;;;6.10;99.90;;;;;;5120027;27;20395;-71
2022/01/10 03:42:10;;;;;;;32.28;9.15;;;6.00;99.90;;;;;;5114149;27;20450;-71
2022/01/10 03:44:36;;;;;;;30.63;9.40;;;6.10;99.90;;;;;;5114966;27;21234;-71
2022/01/10 03:47:02;;;;;;;26.80;9.23;;;6.10;99.90;;;;;;5107434;27;20408;-72
2022/01/10 03:49:28;;;;;;;27.40;8.77;;;6.10;99.90;;;;;;5111939;27;20435;-71
2022/01/10 03:51:55;;;;;;;31.77;8.75;;;6.10;99.90;;;;;;5097448;28;20767;-71
2022/01/10 03:54:21;;;;;;;30.65;8.73;;;6.20;99.90;;;;;;5121933;27;20418;-70
2022/01/10 03:56:49;;;;;;;27.80;8.60;;;6.20;99.90;;;;;;5118056;27;20465;-71
2022/01/10 03:59:16;;;;;;;32.53;9.27;;;6.20;99.90;;;;;;5115797;27;20427;-72
2022/01/10 04:01:41;;;;;;;28.30;8.32;;;6.20;99.90;;;;;;5093669;28;20912;-71
2022/01/10 04:04:08;;;;;;;29.25;9.20;;;6.20;99.90;;;;;;5109878;27;20431;-72
2022/01/10 04:06:34;;;;;;;28.00;9.35;;;6.30;99.90;;;;;;5110309;27;20458;-71
2022/01/10 04:09:01;;;;;;;30.40;8.48;;;6.30;99.90;;;;;;5094746;28;20927;-72
2022/01/10 04:11:27;;;;;;;27.27;8.73;;;6.30;99.90;;;;;;5109113;27;20404;-71
2022/01/10 04:13:53;;;;;;;27.33;8.48;;;6.30;99.90;;;;;;5124377;27;20815;-70
2022/01/10 04:16:19;;;;;;;27.67;8.47;;;6.30;99.90;;;;;;5114821;27;20414;-70
2022/01/10 04:18:44;;;;;;;26.80;8.63;;;6.30;99.90;;;;;;5119363;27;20517;-71
2022/01/10 04:21:11;;;;;;;24.67;8.30;;;6.30;99.90;;;;;;5107909;28;20506;-73
2022/01/10 04:23:37;;;;;;;26.40;8.43;;;6.30;99.90;;;;;;5091620;28;20491;-71
2022/01/10 04:26:03;;;;;;;25.13;8.48;;;6.30;99.90;;;;;;5094657;27;20953;-69
2022/01/10 04:28:33;;;;;;;28.52;8.95;;;6.30;99.90;;;;;;5116703;27;20448;-70
2022/01/10 04:30:59;;;;;;;27.17;8.87;;;6.30;99.90;;;;;;5117096;27;20406;-71
2022/01/10 04:33:29;;;;;;;30.10;8.82;;;6.30;99.90;;;;;;5117535;27;20422;-72
2022/01/10 04:35:57;;;;;;;26.83;9.20;;;6.20;99.90;;;;;;5107445;28;20835;-71
2022/01/10 04:38:23;;;;;;;34.33;9.52;;;6.20;99.90;;;;;;5115867;27;20480;-71
2022/01/10 04:40:49;;;;;;;33.80;9.88;;;6.20;99.90;;;;;;5116095;27;20404;-70
2022/01/10 04:43:15;;;;;;;30.13;9.35;;;6.10;99.90;;;;;;5089043;28;20515;-71
2022/01/10 04:45:42;;;;;;;32.00;8.80;;;6.10;99.90;;;;;;5109885;27;20499;-72
2022/01/10 04:48:09;;;;;;;26.88;8.80;;;6.10;99.90;;;;;;5112626;27;20395;-71
2022/01/10 04:53:21;;;;;;;28.95;9.77;;;6.10;99.90;;;;;;5111679;27;20474;-74
2022/01/10 04:55:47;;;;;;;28.13;9.30;;;6.10;99.90;;;;;;5107118;27;20392;-71
2022/01/10 04:58:12;;;;;;;27.98;9.18;;;6.20;99.90;;;;;;5113528;27;20762;-71
2022/01/10 05:00:38;;;;;;;28.53;9.47;;;6.20;99.90;;;;;;5108736;27;20466;-71
2022/01/10 05:03:04;;;;;;;26.45;9.02;;;6.30;99.90;;;;;;5116979;27;20398;-72
2022/01/10 05:05:30;;;;;;;25.95;8.98;;;6.30;99.90;;;;;;5107788;27;20404;-71
2022/01/10 05:07:56;;;;;;;22.50;9.15;;;6.30;99.90;;;;;;5108474;28;20396;-72
2022/01/10 05:10:22;;;;;;;26.33;9.10;;;6.40;99.90;;;;;;5117133;27;20405;-70
2022/01/10 05:12:48;;;;;;;28.25;9.70;;;6.40;99.90;;;;;;5099570;28;20894;-69
2022/01/10 05:15:14;;;;;;;27.60;9.60;;;6.40;99.90;;;;;;5111286;27;20419;-71
2022/01/10 05:17:40;;;;;;;29.47;9.30;;;6.40;99.90;;;;;;5114464;28;20502;-70
2022/01/10 05:20:08;;;;;;;27.77;10.13;;;6.40;99.90;;;;;;5110437;28;20443;-70
2022/01/10 05:22:33;;;;;;;29.77;9.43;;;6.40;99.90;;;;;;5107067;28;20404;-71
2022/01/10 05:24:59;;;;;;;32.67;10.00;;;6.50;99.90;;;;;;5104751;28;20411;-71
2022/01/10 05:27:25;;;;;;;27.83;10.15;;;6.50;99.90;;;;;;5112824;28;20762;-72
2022/01/10 05:29:53;;;;;;;24.58;9.80;;;6.50;99.90;;;;;;5105992;28;20455;-70
2022/01/10 05:32:19;;;;;;;25.80;9.50;;;6.50;99.90;;;;;;5111064;28;20391;-71
2022/01/10 05:35:02;;;;;;;27.73;9.43;;;6.50;99.90;;;;;;5115095;28;20456;-71
2022/01/10 05:37:28;;;;;;;27.27;9.93;;;6.50;99.90;;;;;;5107929;28;20890;-71
2022/01/10 05:39:53;;;;;;;27.27;9.70;;;6.50;99.90;;;;;;5112188;28;20437;-70
2022/01/10 05:42:20;;;;;;;26.33;9.57;;;6.40;99.90;;;;;;5114312;28;20424;-71
2022/01/10 05:44:47;;;;;;;23.85;9.90;;;6.40;99.90;;;;;;5090019;28;20408;-72
2022/01/10 05:47:13;;;;;;;27.38;10.70;;;6.30;99.90;;;;;;5106950;28;20477;-70
2022/01/10 05:49:46;;;;;;;28.83;10.50;;;6.30;99.90;;;;;;5104485;28;20457;-70
2022/01/10 05:52:14;;;;;;;30.38;10.73;;;6.30;99.90;;;;;;5113170;27;20403;-71
2022/01/10 05:54:40;;;;;;;29.50;11.80;;;6.30;99.90;;;;;;5105518;28;20431;-71
2022/01/10 05:57:07;;;;;;;28.10;11.40;;;6.30;99.90;;;;;;5093879;28;20478;-71
2022/01/10 05:59:36;;;;;;;32.28;12.10;;;6.20;99.90;;;;;;5108644;28;20420;-71
2022/01/10 06:02:04;;;;;;;29.10;11.90;;;6.20;99.90;;;;;;5118096;28;20413;-71
2022/01/10 06:04:31;;;;;;;30.58;12.00;;;6.20;99.90;;;;;;5093240;28;20408;-69
2022/01/10 06:07:01;;;;;;;34.55;13.20;;;6.20;99.90;;;;;;5106219;28;20404;-71
2022/01/10 06:09:27;;;;;;;30.23;11.48;;;6.10;99.90;;;;;;5106595;28;20404;-71
2022/01/10 06:11:55;;;;;;;26.17;11.07;;;6.10;99.90;;;;;;5106177;28;20416;-71
2022/01/10 06:14:20;;;;;;;30.27;11.23;;;6.10;99.90;;;;;;5110783;28;20443;-71
2022/01/10 06:16:46;;;;;;;30.83;10.77;;;6.10;99.90;;;;;;5110813;28;20744;-70
2022/01/10 06:19:12;;;;;;;29.95;10.95;;;6.10;99.90;;;;;;5102778;28;20471;-69
2022/01/10 06:21:38;;;;;;;33.65;12.02;;;6.00;99.90;;;;;;5112251;27;20767;-71
2022/01/10 06:24:04;;;;;;;30.90;11.35;;;6.00;99.90;;;;;;5084423;28;20419;-69
2022/01/10 06:26:31;;;;;;;25.75;10.48;;;6.00;99.90;;;;;;5113911;28;20900;-70
2022/01/10 06:28:59;;;;;;;24.08;10.15;;;6.10;99.90;;;;;;5107877;28;20512;-71
2022/01/10 06:31:24;;;;;;;27.10;11.00;;;6.00;99.90;;;;;;5106646;28;20908;-69
2022/01/10 06:33:59;;;;;;;24.88;10.55;;;6.00;99.90;;;;;;5091485;28;20400;-70
2022/01/10 06:36:25;;;;;;;27.60;11.30;;;6.00;99.90;;;;;;5091836;28;21311;-72
2022/01/10 06:38:52;;;;;;;28.27;11.63;;;6.10;99.90;;;;;;5105668;27;20403;-72
2022/01/10 06:41:18;;;;;;;26.98;11.00;;;6.10;99.90;;;;;;5108579;28;20400;-70
2022/01/10 06:43:46;;;;;;;30.02;11.88;;;6.00;99.90;;;;;;5108246;28;20454;-70
2022/01/10 06:46:12;;;;;;;27.37;12.23;;;6.10;99.90;;;;;;5109301;28;20407;-71
2022/01/10 06:48:40;;;;;;;29.05;12.13;;;6.10;99.90;;;;;;5116261;27;20801;-71
2022/01/10 06:51:06;;;;;;;28.83;12.27;;;6.20;99.90;;;;;;5110061;27;20430;-71
2022/01/10 06:53:32;;;;;;;30.27;12.50;;;6.20;99.90;;;;;;5114771;27;20400;-71
2022/01/10 06:56:00;;;;;;;31.27;13.57;;;6.20;99.90;;;;;;5094133;27;20434;-72
2022/01/10 06:58:26;;;;;;;27.35;12.60;;;6.20;99.90;;;;;;5108545;28;20492;-69
2022/01/10 07:00:52;;;;;;;32.70;12.90;;;6.20;99.90;;;;;;5116649;27;20494;-69
2022/01/10 07:03:18;;;;;;;30.52;13.18;;;6.30;99.90;;;;;;5115380;27;20909;-71
2022/01/10 07:05:57;;;;;;;30.98;13.20;;;6.30;99.90;;;;;;5093975;28;20415;-69
2022/01/10 07:08:23;;;;;;;33.67;14.40;;;6.30;99.90;;;;;;5114543;27;20980;-73
2022/01/10 07:10:55;;;;;;;33.13;14.70;;;6.30;99.90;;;;;;5108310;28;20401;-70
2022/01/10 07:13:24;;;;;;;35.63;14.75;;;6.30;99.90;;;;;;5115682;27;20388;-72
2022/01/10 07:15:50;;;;;;;36.42;14.95;;;6.30;99.90;;;;;;5110064;27;20415;-69
2022/01/10 07:18:16;;;;;;;29.95;14.48;;;6.30;99.90;;;;;;5108635;28;20768;-69
2022/01/10 07:20:47;;;;;;;30.67;15.25;;;6.30;99.90;;;;;;5110809;27;20933;-70
2022/01/10 07:23:14;;;;;;;29.23;13.98;;;6.30;99.90;;;;;;5118345;27;20397;-71
2022/01/10 07:25:40;;;;;;;40.23;15.13;;;6.30;99.90;;;;;;5109710;27;20556;-70
2022/01/10 07:28:05;;;;;;;32.58;15.15;;;6.30;99.90;;;;;;5108628;27;20436;-70
2022/01/10 07:30:31;;;;;;;28.87;14.23;;;6.30;99.90;;;;;;5109189;28;20392;-70
2022/01/10 07:32:57;;;;;;;37.08;15.38;;;6.30;99.90;;;;;;5107849;28;20411;-70
2022/01/10 07:35:22;;;;;;;34.30;16.10;;;6.30;99.90;;;;;;5109011;27;21181;-72
2022/01/10 07:37:48;;;;;;;34.40;16.42;;;6.30;99.90;;;;;;5106586;28;20477;-70
2022/01/10 07:40:14;;;;;;;41.33;16.93;;;6.30;99.90;;;;;;5108192;27;20516;-71
2022/01/10 07:42:40;;;;;;;34.47;16.25;;;6.30;99.90;;;;;;5111855;27;20507;-70
2022/01/10 07:45:12;;;;;;;40.17;16.80;;;6.30;99.90;;;;;;5106014;28;20483;-68
2022/01/10 07:47:39;;;;;;;35.03;16.48;;;6.30;99.90;;;;;;5108195;27;20485;-71
2022/01/10 07:50:05;;;;;;;36.70;16.38;;;6.30;99.90;;;;;;5107506;28;20420;-69
2022/01/10 07:52:31;;;;;;;38.97;16.55;;;6.30;99.90;;;;;;5108900;28;20978;-71
2022/01/10 07:54:57;;;;;;;37.28;16.77;;;6.40;99.90;;;;;;5108580;28;20431;-68
2022/01/10 07:57:23;;;;;;;38.00;17.25;;;6.40;99.90;;;;;;5109783;27;20869;-70
2022/01/10 07:59:48;;;;;;;33.57;16.90;;;6.40;99.90;;;;;;5107926;27;20420;-70
2022/01/10 08:02:16;;;;;;;35.10;17.67;;;6.40;99.90;;;;;;5112640;27;20487;-68
2022/01/10 08:04:42;;;;;;;34.80;17.70;;;6.50;99.90;;;;;;5109335;27;20780;-67
2022/01/10 08:07:07;;;;;;;37.28;17.85;;;6.50;99.90;;;;;;5107438;28;20396;-69
2022/01/10 08:09:33;;;;;;;36.70;18.47;;;6.40;99.90;;;;;;5115073;27;20917;-70
2022/01/10 08:12:01;;;;;;;35.60;17.85;;;6.50;99.90;;;;;;5107955;28;20395;-68
2022/01/10 08:14:31;;;;;;;37.97;19.23;;;6.50;99.90;;;;;;5124506;27;20402;-68
2022/01/10 08:16:58;;;;;;;37.03;18.40;;;6.50;99.90;;;;;;5111586;27;20407;-73
2022/01/10 08:19:24;;;;;;;39.67;19.05;;;6.50;99.90;;;;;;5116553;27;20496;-71
2022/01/10 08:21:49;;;;;;;39.75;18.77;;;6.50;99.90;;;;;;5108735;27;20457;-68
2022/01/10 08:24:16;;;;;;;36.83;19.30;;;6.50;99.90;;;;;;5108415;27;20400;-68
2022/01/10 08:26:42;;;;;;;36.43;19.27;;;6.60;99.90;;;;;;5108554;28;20481;-68
2022/01/10 08:29:08;;;;;;;34.78;19.95;;;6.60;99.90;;;;;;5107761;28;20481;-70
2022/01/10 08:31:34;;;;;;;37.70;20.38;;;6.60;99.90;;;;;;5108685;27;20384;-71
2022/01/10 08:34:03;;;;;;;39.13;20.63;;;6.60;99.90;;;;;;5113008;27;20402;-70
2022/01/10 08:36:28;;;;;;;40.45;20.13;;;6.70;99.90;;;;;;5113193;27;20768;-70
2022/01/10 08:38:55;;;;;;;42.63;21.37;;;6.70;99.90;;;;;;5107853;28;20408;-69
2022/01/10 08:41:21;;;;;;;38.25;21.15;;;6.70;99.90;;;;;;5108920;27;20416;-70
2022/01/10 08:43:46;;;;;;;39.97;21.03;;;6.70;99.90;;;;;;5107714;28;20426;-69
2022/01/10 08:46:12;;;;;;;41.35;22.58;;;6.70;99.90;;;;;;5106789;28;20400;-70
2022/01/10 08:48:38;;;;;;;34.63;21.42;;;6.70;99.90;;;;;;5108777;27;20404;-70
2022/01/10 08:51:04;;;;;;;36.23;22.20;;;6.80;99.90;;;;;;5107635;27;20412;-70
2022/01/10 08:53:29;;;;;;;37.53;21.95;;;6.80;99.90;;;;;;5116156;27;20418;-72
2022/01/10 08:55:55;;;;;;;38.90;22.20;;;6.80;99.90;;;;;;5107868;28;20434;-70
2022/01/10 08:58:22;;;;;;;41.92;22.95;;;6.80;99.90;;;;;;5107735;27;20436;-70
2022/01/10 09:00:48;;;;;;;39.47;22.37;;;6.90;99.90;;;;;;5114700;27;20408;-70
2022/01/10 09:03:14;;;;;;;36.57;21.53;;;6.90;99.90;;;;;;5106948;28;20500;-71
2022/01/10 09:05:40;;;;;;;39.50;21.75;;;6.90;99.90;;;;;;5108159;28;20490;-70
2022/01/10 09:08:06;;;;;;;36.60;21.58;;;6.90;99.90;;;;;;5107764;28;20438;-69
2022/01/10 09:10:32;;;;;;;38.45;21.50;;;6.90;99.90;;;;;;5106338;28;20807;-69
2022/01/10 09:12:58;;;;;;;37.17;19.30;;;7.00;99.90;;;;;;5112713;27;20181;-71
2022/01/10 09:15:23;;;;;;;40.45;19.30;;;6.60;99.90;;;;;;5112226;27;20193;-72
2022/01/10 09:17:49;;;;;;;40.50;18.60;;;6.40;99.90;;;;;;5115401;27;20268;-73
2022/01/10 09:20:15;;;;;;;37.78;19.10;;;6.20;99.90;;;;;;5108623;28;20533;-70
2022/01/10 09:22:40;;;;;;;38.83;19.00;;;6.10;99.90;;;;;;5109904;27;20192;-71
2022/01/10 09:25:07;;;;;;;36.03;18.85;;;6.00;99.90;;;;;;5111844;28;20201;-71
2022/01/10 09:27:33;;;;;;;42.92;18.90;;;6.00;99.90;;;;;;5108185;28;20547;-70
2022/01/10 09:29:58;;;;;;;37.25;18.55;;;5.90;99.90;;;;;;5105560;28;20184;-71
2022/01/10 09:32:24;;;;;;;35.45;18.80;;;5.90;99.90;;;;;;5107301;28;20207;-69
2022/01/10 09:34:49;;;;;;;40.70;18.55;;;5.80;99.90;;;;;;5097597;28;20732;-69
2022/01/10 09:37:16;;;;;;;36.42;18.80;;;5.80;99.90;;;;;;5108037;28;20185;-68
2022/01/10 09:39:41;;;;;;;34.17;18.38;;;5.80;99.90;;;;;;5108334;28;20217;-71
2022/01/10 09:42:07;;;;;;;37.92;19.35;;;5.80;99.90;;;;;;5111240;28;20247;-69
2022/01/10 09:44:34;;;;;;;41.55;18.38;;;5.80;99.90;;;;;;5108838;28;20657;-70
2022/01/10 09:47:00;;;;;;;37.55;20.02;;;5.80;99.90;;;;;;5106034;28;20185;-70
2022/01/10 09:49:26;;;;;;;37.42;19.58;;;5.80;99.90;;;;;;5108676;28;20658;-70
2022/01/10 09:51:51;;;;;;;33.58;18.60;;;5.90;99.90;;;;;;5089712;28;20206;-69
2022/01/10 09:54:17;;;;;;;33.03;20.17;;;5.90;99.90;;;;;;5107816;28;20192;-69
2022/01/10 09:56:47;;;;;;;43.90;21.17;;;5.90;99.90;;;;;;5108671;28;20181;-70
2022/01/10 09:59:13;;;;;;;33.65;18.63;;;5.90;99.90;;;;;;5106675;28;20262;-70
2022/01/10 10:01:39;;;;;;;43.00;20.98;;;6.00;99.90;;;;;;5105655;28;20733;-70
2022/01/10 10:04:05;;;;;;;32.53;19.50;;;6.00;99.90;;;;;;5108334;28;20280;-69
2022/01/10 10:06:32;;;;;;;39.63;19.48;;;6.00;99.90;;;;;;5108283;28;20181;-69
2022/01/10 10:09:04;;;;;;;43.88;20.40;;;6.10;99.90;;;;;;5119564;27;20608;-69
2022/01/10 10:11:47;;;;;;;38.38;19.55;;;6.10;99.90;;;;;;5112146;28;20294;-70
2022/01/10 10:14:17;;;;;;;43.38;19.95;;;6.20;99.90;;;;;;5112309;27;20556;-68
2022/01/10 10:16:49;;;;;;;38.83;19.20;;;6.20;99.90;;;;;;5111850;27;20232;-70
2022/01/10 10:19:20;;;;;;;35.15;20.15;;;6.30;99.90;;;;;;5119685;27;20234;-69
2022/01/10 10:21:47;;;;;;;37.28;19.13;;;6.30;99.90;;;;;;5111300;27;20189;-69
2022/01/10 10:24:13;;;;;;;38.80;19.90;;;6.40;99.90;;;;;;5117716;27;20213;-70
2022/01/10 10:26:39;;;;;;;35.70;19.15;;;6.40;99.90;;;;;;5115801;27;20763;-69
2022/01/10 10:29:04;;;;;;;33.33;19.40;;;6.50;99.90;;;;;;5109720;28;20173;-69
2022/01/10 10:31:36;;;;;;;35.08;19.92;;;6.50;99.90;;;;;;5112870;27;20181;-71
2022/01/10 10:34:04;;;;;;;36.78;20.02;;;6.50;99.90;;;;;;5109746;27;20195;-70
2022/01/10 10:36:32;;;;;;;34.55;19.92;;;6.60;99.90;;;;;;5108600;27;20219;-70
2022/01/10 10:38:59;;;;;;;32.53;20.10;;;6.60;99.90;;;;;;5112316;27;20585;-69
2022/01/10 10:41:25;;;;;;;36.13;19.42;;;6.70;99.90;;;;;;5108861;28;20189;-70
2022/01/10 10:43:54;;;;;;;35.30;19.23;;;6.70;99.90;;;;;;5108507;28;20217;-70
2022/01/10 10:46:24;;;;;;;41.50;20.60;;;6.70;99.90;;;;;;5108571;27;20196;-70
2022/01/10 10:48:52;;;;;;;35.95;20.55;;;6.80;99.90;;;;;;5090001;28;20190;-70
2022/01/10 10:51:19;;;;;;;41.83;20.92;;;6.80;99.90;;;;;;5110774;27;20248;-69
2022/01/10 10:53:45;;;;;;;40.00;20.58;;;6.90;99.90;;;;;;5113080;27;20217;-69
2022/01/10 10:56:11;;;;;;;34.80;20.92;;;6.90;99.90;;;;;;5113711;27;20653;-69
2022/01/10 10:58:41;;;;;;;44.17;20.27;;;7.00;99.90;;;;;;5121023;27;20201;-69
2022/01/10 11:01:07;;;;;;;37.58;21.15;;;7.00;99.90;;;;;;5112414;28;20192;-68
2022/01/10 11:03:33;;;;;;;31.25;20.55;;;7.10;99.90;;;;;;5107946;28;20189;-70
2022/01/10 11:06:01;;;;;;;44.22;20.25;;;7.20;99.90;;;;;;5108388;28;20697;-71
2022/01/10 11:08:31;;;;;;;34.78;20.35;;;7.30;99.90;;;;;;5115997;27;20227;-69
2022/01/10 11:10:59;;;;;;;41.08;21.10;;;7.30;99.90;;;;;;5108815;28;20209;-69
2022/01/10 11:13:27;;;;;;;41.60;20.50;;;7.40;99.90;;;;;;5111163;28;20192;-69
2022/01/10 11:15:54;;;;;;;37.42;21.20;;;7.40;99.90;;;;;;5109380;28;20185;-69
2022/01/10 11:18:21;;;;;;;38.88;22.40;;;7.50;99.90;;;;;;5111754;27;20414;-70
2022/01/10 11:20:50;;;;;;;38.25;22.58;;;8.00;99.90;;;;;;5106477;28;20433;-70
2022/01/10 11:23:16;;;;;;;42.07;24.83;;;8.50;99.90;;;;;;5110149;28;20465;-72
2022/01/10 11:25:42;;;;;;;38.60;22.65;;;8.80;99.90;;;;;;5108413;27;20408;-71
2022/01/10 11:28:10;;;;;;;35.97;20.92;;;9.00;99.90;;;;;;5119073;27;20965;-70
2022/01/10 11:30:40;;;;;;;34.40;20.33;;;9.10;99.90;;;;;;5108442;28;20498;-71
2022/01/10 11:33:10;;;;;;;35.53;21.30;;;9.20;99.90;;;;;;5110170;27;21154;-72
2022/01/10 11:35:46;;;;;;;35.13;21.42;;;9.30;99.90;;;;;;5107313;27;20810;-70
2022/01/10 11:38:39;;;;;;;32.35;20.75;;;9.40;99.90;;;;;;5109005;28;20427;-70
2022/01/10 11:41:12;;;;;;;35.35;21.45;;;9.50;99.90;;;;;;5104810;28;20414;-71
2022/01/10 11:43:43;;;;;;;35.38;21.52;;;9.60;99.90;;;;;;5105271;28;20452;-71
2022/01/10 11:46:20;;;;;;;40.22;22.73;;;9.70;99.90;;;;;;5105778;27;20415;-69
2022/01/10 11:49:08;;;;;;;41.10;22.33;;;9.80;99.90;;;;;;5108867;27;20417;-69
2022/01/10 11:51:41;;;;;;;34.17;21.07;;;9.80;99.90;;;;;;5094139;28;20408;-72
2022/01/10 11:54:26;;;;;;;37.10;21.92;;;10.00;99.90;;;;;;5108548;28;20404;-70
2022/01/10 11:56:53;;;;;;;42.25;22.05;;;9.90;99.90;;;;;;5109527;28;20209;-70
2022/01/10 11:59:30;;;;;;;37.85;21.95;;;9.60;99.90;;;;;;5125982;27;20826;-72
2022/01/10 12:02:10;;;;;;;34.60;20.92;;;9.20;99.90;;;;;;5107631;28;20189;-70
2022/01/10 12:04:43;;;;;;;34.05;22.20;;;9.00;99.90;;;;;;5092704;28;20205;-70
2022/01/10 12:07:11;;;;;;;42.75;22.70;;;8.90;99.90;;;;;;5123020;27;20188;-71
2022/01/10 12:09:37;;;;;;;41.10;22.48;;;8.80;99.90;;;;;;5114289;27;20186;-71
2022/01/10 12:12:04;;;;;;;37.70;21.40;;;8.70;99.90;;;;;;5143936;27;20733;-69
2022/01/10 12:14:31;;;;;;;37.85;21.38;;;8.70;99.90;;;;;;5106748;28;20185;-69
2022/01/10 12:16:58;;;;;;;37.58;21.55;;;8.70;99.90;;;;;;5110187;28;20193;-69
2022/01/10 12:19:24;;;;;;;47.63;22.35;;;8.60;99.90;;;;;;5118338;27;20181;-71
2022/01/10 12:21:50;;;;;;;45.70;24.75;;;8.60;99.90;;;;;;5112503;27;20615;-70
2022/01/10 12:24:16;;;;;;;43.33;23.55;;;8.60;99.90;;;;;;5109334;28;20241;-70
2022/01/10 12:26:42;;;;;;;52.53;23.63;;;8.50;99.90;;;;;;5108546;28;20604;-69
2022/01/10 12:29:10;;;;;;;41.67;23.35;;;8.50;99.90;;;;;;5116409;27;20977;-71
2022/01/10 12:31:38;;;;;;;43.03;23.08;;;8.50;99.90;;;;;;5108344;28;20201;-68
2022/01/10 12:34:05;;;;;;;38.58;21.98;;;8.50;99.90;;;;;;5108229;28;20213;-70
2022/01/10 12:36:32;;;;;;;39.42;22.33;;;8.50;99.90;;;;;;5111142;27;20182;-72
2022/01/10 12:39:01;;;;;;;42.45;22.90;;;8.50;99.90;;;;;;5106243;28;20276;-72
2022/01/10 12:41:27;;;;;;;39.20;22.02;;;8.50;99.90;;;;;;5108816;28;20191;-71
2022/01/10 12:43:54;;;;;;;38.95;22.80;;;8.50;99.90;;;;;;5105427;27;20217;-72
2022/01/10 12:46:20;;;;;;;38.22;22.42;;;8.60;99.90;;;;;;5110364;28;20238;-70
2022/01/10 12:48:49;;;;;;;39.35;23.00;;;8.60;99.90;;;;;;5120696;27;20234;-71
2022/01/10 12:51:17;;;;;;;39.13;23.25;;;8.60;99.90;;;;;;5107698;28;20203;-73
2022/01/10 12:53:47;;;;;;;56.28;24.10;;;8.60;99.90;;;;;;5108461;27;20790;-74